Time;durP1;ratioP1;P1;durP2;ratioP2;P2;SDS_P1;SDS_P2;PMS_P1;PMS_P2;Temp;Humidity;BMP_temperature;BMP_pressure;BME280_temperature;BME280_humidity;BME280_pressure;Samples;Min_cycle;Max_cycle;Signal;HPM_P1;HPM_P2
2021/12/10 00:00:30;;;;;;;;;;;;;;;15.13;65.03;99378.59;1048800;28;704;-62
2021/12/10 00:01:21;;;;;;;;;;;;;;;15.13;64.76;99375.91;1048582;28;659;-62
2021/12/10 00:02:11;;;;;;;;;;;;;;;15.12;65.23;99380.44;1045576;28;652;-62
2021/12/10 00:03:02;;;;;;;;;;;;;;;15.13;65.01;99373.22;1044913;28;761;-62
2021/12/10 00:03:52;;;;;;;;;;;;;;;15.12;65.25;99364.34;1048508;28;1955;-62
2021/12/10 00:04:42;;;;;;;;;;;;;;;15.13;64.65;99370.53;1048759;28;644;-63
2021/12/10 00:05:33;;;;;;;;;;;;;;;15.13;65.28;99370.53;1048615;28;736;-62
2021/12/10 00:06:23;;;;;;;;;;;;;;;15.11;64.69;99372.53;1045501;28;629;-62
2021/12/10 00:07:14;;;;;;;;;;;;;;;15.11;64.57;99368.03;1040897;28;708;-62
2021/12/10 00:08:04;;;;;;;;;;;;;;;15.11;65.01;99367.19;1045292;28;677;-62
2021/12/10 00:08:54;;;;;;;;;;;;;;;15.10;64.90;99366.34;1048845;28;1892;-62
2021/12/10 00:09:45;;;;;;;;;;;;;;;15.11;64.52;99364.50;1049332;28;735;-62
2021/12/10 00:10:35;;;;;;;;;;;;;;;15.08;64.99;99362.13;1049354;28;691;-61
2021/12/10 00:11:26;;;;;;;;;;;;;;;15.09;64.76;99358.44;1049874;28;601;-61
2021/12/10 00:12:16;;;;;;;;;;;;;;;15.09;64.99;99355.78;1045912;28;676;-61
2021/12/10 00:13:07;;;;;;;;;;;;;;;15.09;64.57;99348.56;1044442;28;690;-61
2021/12/10 00:13:57;;;;;;;;;;;;;;;15.08;65.05;99356.78;1048727;28;803;-61
2021/12/10 00:14:48;;;;;;;;;;;;;;;15.06;64.98;99354.25;1048937;28;696;-61
2021/12/10 00:15:40;;;;;;;;;;;;;;;15.06;65.20;99356.94;1048709;28;640;-61
2021/12/10 00:16:30;;;;;;;;;;;;;;;15.07;65.10;99349.72;1048681;28;689;-61
2021/12/10 00:17:22;;;;;;;;;;;;;;;15.07;65.15;99339.00;1048792;28;621;-61
2021/12/10 00:18:13;;;;;;;;;;;;;;;15.08;65.04;99348.72;1049886;28;692;-61
2021/12/10 00:20:20;;;;;;;;;;;;;;;15.06;64.44;99337.31;1036903;28;1261;-61
2021/12/10 00:21:11;;;;;;;;;;;;;;;15.06;64.87;99340.00;1052204;28;1713;-61
2021/12/10 00:22:01;;;;;;;;;;;;;;;15.05;64.63;99341.84;1053835;28;1491;-61
2021/12/10 00:22:55;;;;;;;;;;;;;;;15.06;64.69;99348.88;1052696;28;623;-61
2021/12/10 00:23:49;;;;;;;;;;;;;;;15.05;64.76;99346.41;1052852;28;1971;-61
2021/12/10 00:24:40;;;;;;;;;;;;;;;15.03;64.78;99345.72;1052662;28;705;-61
2021/12/10 00:25:35;;;;;;;;;;;;;;;15.02;65.07;99338.66;1049531;28;695;-61
2021/12/10 00:26:25;;;;;;;;;;;;;;;15.01;64.92;99335.16;1049467;28;711;-61
2021/12/10 00:27:16;;;;;;;;;;;;;;;15.02;64.68;99344.03;1054126;28;684;-62
2021/12/10 00:28:15;;;;;;;;;;;;;;;15.02;65.00;99338.66;1054052;28;652;-61
2021/12/10 00:29:06;;;;;;;;;;;;;;;15.03;65.11;99343.88;1052831;28;680;-61
2021/12/10 00:30:03;;;;;;;;;;;;;;;15.03;65.19;99337.66;1052953;28;677;-61
2021/12/10 00:32:04;;;;;;;;;;;;;;;14.99;65.24;99315.69;1053943;28;788;-61
2021/12/10 00:32:59;;;;;;;;;;;;;;;15.00;64.70;99324.56;1051936;28;1799;-61
2021/12/10 00:33:49;;;;;;;;;;;;;;;15.00;64.53;99320.06;1052929;28;683;-61
2021/12/10 00:34:40;;;;;;;;;;;;;;;15.01;65.08;99312.84;1053865;28;862;-62
2021/12/10 00:35:30;;;;;;;;;;;;;;;14.97;65.46;99309.66;1049543;28;749;-62
2021/12/10 00:36:21;;;;;;;;;;;;;;;14.99;64.76;99315.69;1049613;28;640;-62
2021/12/10 00:37:11;;;;;;;;;;;;;;;14.98;64.72;99311.31;1053944;28;779;-61
2021/12/10 00:38:02;;;;;;;;;;;;;;;14.98;65.03;99302.44;1054054;28;617;-61
2021/12/10 00:38:52;;;;;;;;;;;;;;;14.97;65.00;99304.28;1053994;28;842;-67
2021/12/10 00:39:42;;;;;;;;;;;;;;;14.97;65.15;99316.84;1053937;28;711;-64
2021/12/10 00:40:33;;;;;;;;;;;;;;;14.98;64.65;99308.66;1054024;28;676;-63
2021/12/10 00:41:23;;;;;;;;;;;;;;;14.97;65.39;99312.34;1053967;28;683;-64
2021/12/10 00:42:14;;;;;;;;;;;;;;;14.96;64.81;99301.75;1053983;28;691;-63
2021/12/10 00:43:04;;;;;;;;;;;;;;;14.97;65.02;99300.75;1053967;28;826;-63
2021/12/10 00:43:54;;;;;;;;;;;;;;;14.96;65.27;99294.56;1053940;28;1951;-63
2021/12/10 00:44:45;;;;;;;;;;;;;;;14.97;64.70;99301.59;1053954;28;1943;-63
2021/12/10 00:45:35;;;;;;;;;;;;;;;14.97;65.33;99300.75;1052289;28;612;-63
2021/12/10 00:46:26;;;;;;;;;;;;;;;14.96;65.23;99299.91;1052416;28;652;-63
2021/12/10 00:47:16;;;;;;;;;;;;;;;14.95;64.57;99298.25;1052114;28;785;-63
2021/12/10 00:48:06;;;;;;;;;;;;;;;14.94;65.17;99288.50;1048992;28;739;-63
2021/12/10 00:48:57;;;;;;;;;;;;;;;14.93;65.12;99295.72;1049526;28;651;-63
2021/12/10 00:49:47;;;;;;;;;;;;;;;14.93;65.26;99295.72;1049559;28;672;-62
2021/12/10 00:50:38;;;;;;;;;;;;;;;14.93;64.85;99290.34;1053252;28;657;-63
2021/12/10 00:51:28;;;;;;;;;;;;;;;14.92;65.01;99291.34;1052159;28;758;-62
2021/12/10 00:52:19;;;;;;;;;;;;;;;14.92;64.64;99296.72;1052497;28;605;-62
2021/12/10 00:53:09;;;;;;;;;;;;;;;14.92;65.27;99295.88;1047713;28;1798;-62
2021/12/10 00:54:00;;;;;;;;;;;;;;;14.92;65.22;99290.53;1045435;28;713;-62
2021/12/10 00:54:50;;;;;;;;;;;;;;;14.92;65.25;99288.69;1049133;28;644;-62
2021/12/10 00:55:41;;;;;;;;;;;;;;;14.92;65.31;99288.69;1048572;28;759;-62
2021/12/10 00:56:31;;;;;;;;;;;;;;;14.91;64.95;99287.00;1048487;28;630;-62
2021/12/10 00:57:21;;;;;;;;;;;;;;;14.90;65.01;99292.53;1048679;28;625;-62
2021/12/10 00:58:12;;;;;;;;;;;;;;;14.90;65.22;99284.47;1048793;28;664;-62
2021/12/10 00:59:02;;;;;;;;;;;;;;;14.90;65.16;99287.16;1048599;28;679;-62
2021/12/10 00:59:53;;;;;;;;;;;;;;;14.89;64.64;99275.59;1048720;28;684;-62
2021/12/10 01:00:43;;;;;;;;;;;;;;;14.90;65.28;99288.00;1048452;28;625;-62
2021/12/10 01:01:33;;;;;;;;;;;;;;;14.91;65.24;99287.00;1048664;28;743;-62
2021/12/10 01:02:24;;;;;;;;;;;;;;;14.88;65.28;99281.13;1048516;28;739;-61
2021/12/10 01:03:14;;;;;;;;;;;;;;;14.88;64.90;99281.97;1049757;28;1917;-62
2021/12/10 01:04:05;;;;;;;;;;;;;;;14.87;65.13;99280.28;1053111;28;768;-62
2021/12/10 01:04:55;;;;;;;;;;;;;;;14.85;65.05;99271.59;1053012;28;630;-62
2021/12/10 01:05:45;;;;;;;;;;;;;;;14.86;65.25;99278.63;1053198;28;659;-62
2021/12/10 01:06:36;;;;;;;;;;;;;;;14.86;65.34;99270.59;1052980;28;650;-61
2021/12/10 01:07:26;;;;;;;;;;;;;;;14.84;64.76;99275.28;1053084;28;858;-62
2021/12/10 01:08:17;;;;;;;;;;;;;;;14.84;65.54;99266.38;1053143;28;768;-62
2021/12/10 01:09:07;;;;;;;;;;;;;;;14.83;65.31;99268.22;1053000;28;626;-62
2021/12/10 01:09:58;;;;;;;;;;;;;;;14.85;65.20;99257.34;1053245;28;713;-64
2021/12/10 01:10:48;;;;;;;;;;;;;;;14.85;64.96;99266.22;1053035;28;628;-63
2021/12/10 01:11:39;;;;;;;;;;;;;;;14.85;65.34;99257.34;1054841;28;691;-64
2021/12/10 01:12:29;;;;;;;;;;;;;;;14.83;65.06;99252.13;1052719;28;1254;-65
2021/12/10 01:13:26;;;;;;;;;;;;;;;14.83;65.13;99246.78;1054798;28;624;-66
2021/12/10 01:14:22;;;;;;;;;;;;;;;14.82;65.40;99245.09;1054742;28;635;-65
2021/12/10 01:23:55;;;;;;;;;;;;;;;14.82;65.30;99230.84;1049398;28;1973;-64
2021/12/10 01:25:51;;;;;;;;;;;;;;;14.79;64.88;99228.50;1049256;28;668;-64
2021/12/10 01:27:35;;;;;;;;;;;;;;;14.78;65.30;99224.97;1049898;28;696;-62
2021/12/10 01:28:25;;;;;;;;;;;;;;;14.77;65.56;99215.25;1050027;28;637;-62
2021/12/10 01:29:16;;;;;;;;;;;;;;;14.78;65.03;99218.75;1050133;28;708;-62
2021/12/10 01:30:06;;;;;;;;;;;;;;;14.78;65.44;99222.28;1049881;28;703;-62
2021/12/10 01:30:57;;;;;;;;;;;;;;;14.77;65.06;99219.75;1049971;28;779;-62
2021/12/10 01:31:47;;;;;;;;;;;;;;;14.79;64.92;99223.13;1049958;28;609;-63
2021/12/10 01:32:37;;;;;;;;;;;;;;;14.77;65.15;99214.41;1049890;28;633;-63
2021/12/10 01:33:28;;;;;;;;;;;;;;;14.76;65.56;99210.03;1050031;28;741;-63
2021/12/10 01:34:18;;;;;;;;;;;;;;;14.76;65.61;99207.38;1049950;28;613;-62
2021/12/10 01:35:09;;;;;;;;;;;;;;;14.76;65.33;99210.88;1050034;28;735;-62
2021/12/10 01:36:01;;;;;;;;;;;;;;;14.74;65.18;99210.22;1045479;28;670;-63
2021/12/10 01:36:51;;;;;;;;;;;;;;;14.75;65.50;99206.53;1045467;28;1391;-61
2021/12/10 01:37:42;;;;;;;;;;;;;;;14.76;64.91;99200.16;1050038;28;638;-60
2021/12/10 01:38:32;;;;;;;;;;;;;;;14.75;65.58;99211.88;1049934;28;786;-61
2021/12/10 01:39:22;;;;;;;;;;;;;;;14.75;64.85;99211.88;1050057;28;1822;-62
2021/12/10 01:40:13;;;;;;;;;;;;;;;14.75;65.28;99211.03;1049259;28;668;-61
2021/12/10 01:41:06;;;;;;;;;;;;;;;14.75;65.30;99216.41;1048929;28;724;-61
2021/12/10 01:42:12;;;;;;;;;;;;;;;14.74;65.54;99204.84;1048897;28;647;-63
2021/12/10 01:43:06;;;;;;;;;;;;;;;14.74;64.73;99201.31;1048635;28;629;-63
2021/12/10 01:44:03;;;;;;;;;;;;;;;14.75;64.88;99200.31;1048978;28;1890;-64
2021/12/10 01:44:54;;;;;;;;;;;;;;;14.74;65.54;99198.63;1046100;28;731;-63
2021/12/10 01:45:47;;;;;;;;;;;;;;;14.73;65.27;99197.81;1045403;28;822;-63
2021/12/10 01:46:39;;;;;;;;;;;;;;;14.72;65.27;99189.94;1049860;28;637;-64
2021/12/10 01:47:29;;;;;;;;;;;;;;;14.73;65.05;99180.88;1048742;28;641;-64
2021/12/10 01:48:20;;;;;;;;;;;;;;;14.72;65.34;99179.19;1049954;28;640;-64
2021/12/10 01:49:12;;;;;;;;;;;;;;;14.71;65.13;99188.25;1049822;28;664;-64
2021/12/10 01:50:02;;;;;;;;;;;;;;;14.70;65.08;99183.88;1048717;28;853;-64
2021/12/10 01:50:53;;;;;;;;;;;;;;;14.69;65.89;99179.56;1049913;28;780;-64
2021/12/10 01:51:43;;;;;;;;;;;;;;;14.69;65.35;99182.25;1049361;28;1723;-65
2021/12/10 01:52:34;;;;;;;;;;;;;;;14.69;65.12;99174.19;1049794;28;649;-65
2021/12/10 01:53:24;;;;;;;;;;;;;;;14.68;64.93;99178.72;1053337;28;676;-65
2021/12/10 01:54:17;;;;;;;;;;;;;;;14.69;65.16;99172.31;1054659;28;720;-65
2021/12/10 01:55:08;;;;;;;;;;;;;;;14.69;65.74;99175.00;1053595;28;739;-65
2021/12/10 01:55:58;;;;;;;;;;;;;;;14.70;64.87;99174.00;1054564;28;750;-65
2021/12/10 01:56:49;;;;;;;;;;;;;;;14.68;65.07;99177.88;1054537;28;838;-65
2021/12/10 01:57:39;;;;;;;;;;;;;;;14.67;64.87;99176.19;1049959;28;672;-63
2021/12/10 01:58:29;;;;;;;;;;;;;;;14.68;64.92;99175.19;1049987;28;696;-63
2021/12/10 01:59:20;;;;;;;;;;;;;;;14.68;65.15;99167.16;1054490;28;646;-63
2021/12/10 02:00:10;;;;;;;;;;;;;;;14.68;65.16;99165.31;1054533;28;730;-63
2021/12/10 02:01:01;;;;;;;;;;;;;;;14.68;65.30;99169.84;1054683;28;624;-63
2021/12/10 02:01:51;;;;;;;;;;;;;;;14.67;65.00;99166.31;1054712;28;637;-65
2021/12/10 02:02:42;;;;;;;;;;;;;;;14.68;64.83;99167.16;1054578;28;668;-65
2021/12/10 02:03:32;;;;;;;;;;;;;;;14.68;65.29;99165.31;1054375;28;1886;-65
2021/12/10 02:04:22;;;;;;;;;;;;;;;14.66;65.08;99159.28;1049888;28;820;-64
2021/12/10 02:05:13;;;;;;;;;;;;;;;14.66;64.95;99153.91;1050162;28;810;-64
2021/12/10 02:06:03;;;;;;;;;;;;;;;14.64;65.78;99149.72;1054383;28;715;-63
2021/12/10 02:06:54;;;;;;;;;;;;;;;14.65;65.58;99162.97;1054462;28;1001;-62
2021/12/10 02:07:44;;;;;;;;;;;;;;;14.63;65.21;99156.91;1054549;28;649;-63
2021/12/10 02:08:35;;;;;;;;;;;;;;;14.63;65.33;99154.25;1054589;28;766;-64
2021/12/10 02:09:25;;;;;;;;;;;;;;;14.63;65.18;99156.91;1054640;28;703;-63
2021/12/10 02:10:15;;;;;;;;;;;;;;;14.64;64.90;99158.59;1054567;28;644;-63
2021/12/10 02:11:06;;;;;;;;;;;;;;;14.65;65.31;99159.44;1054556;28;644;-63
2021/12/10 02:11:56;;;;;;;;;;;;;;;14.63;65.39;99154.25;1050929;28;643;-63
2021/12/10 02:12:47;;;;;;;;;;;;;;;14.64;65.04;99149.72;1045756;28;1275;-64
2021/12/10 02:13:37;;;;;;;;;;;;;;;14.63;65.85;99143.50;1045379;28;696;-63
2021/12/10 02:14:28;;;;;;;;;;;;;;;14.63;64.79;99140.00;1049076;28;770;-64
2021/12/10 02:15:20;;;;;;;;;;;;;;;14.63;64.93;99142.69;1049072;28;641;-63
2021/12/10 02:16:11;;;;;;;;;;;;;;;14.62;65.29;99141.84;1051518;28;1900;-63
2021/12/10 02:17:01;;;;;;;;;;;;;;;14.62;65.05;99141.00;1052730;28;779;-60
2021/12/10 02:17:52;;;;;;;;;;;;;;;14.62;65.43;99138.31;1052173;28;1820;-63
2021/12/10 02:18:42;;;;;;;;;;;;;;;14.62;65.56;99131.13;1046020;28;628;-63
2021/12/10 02:19:34;;;;;;;;;;;;;;;14.60;65.08;99138.47;1045528;28;618;-64
2021/12/10 02:20:25;;;;;;;;;;;;;;;14.60;65.36;99138.47;1049207;28;668;-63
2021/12/10 02:21:15;;;;;;;;;;;;;;;14.59;65.11;99126.09;1048949;28;728;-62
2021/12/10 02:22:06;;;;;;;;;;;;;;;14.60;64.93;99127.75;1045774;28;906;-63
2021/12/10 02:22:56;;;;;;;;;;;;;;;14.60;65.22;99133.13;1045268;28;633;-63
2021/12/10 02:23:48;;;;;;;;;;;;;;;14.61;64.85;99148.22;1049135;28;1906;-63
2021/12/10 02:24:38;;;;;;;;;;;;;;;14.61;65.01;99128.59;1048617;28;633;-65
2021/12/10 02:25:29;;;;;;;;;;;;;;;14.59;64.88;99131.44;1049311;28;748;-64
2021/12/10 02:26:19;;;;;;;;;;;;;;;14.59;65.53;99134.13;1049253;28;648;-64
2021/12/10 02:27:10;;;;;;;;;;;;;;;14.58;65.36;99130.59;1049227;28;759;-63
2021/12/10 02:28:00;;;;;;;;;;;;;;;14.58;65.19;99130.59;1049188;28;1672;-64
2021/12/10 02:28:51;;;;;;;;;;;;;;;14.59;64.94;99134.13;1052977;28;668;-64
2021/12/10 02:29:41;;;;;;;;;;;;;;;14.58;65.09;99129.78;1049344;28;658;-64
2021/12/10 02:30:31;;;;;;;;;;;;;;;14.58;65.09;99135.13;1049463;28;621;-63
2021/12/10 02:31:22;;;;;;;;;;;;;;;14.58;64.97;99127.09;1049540;28;751;-63
2021/12/10 02:32:12;;;;;;;;;;;;;;;14.57;65.24;99122.72;1049982;28;620;-63
2021/12/10 02:33:03;;;;;;;;;;;;;;;14.57;65.08;99125.41;1053900;28;699;-64
2021/12/10 02:33:55;;;;;;;;;;;;;;;14.57;65.49;99122.72;1052692;28;724;-64
2021/12/10 02:34:49;;;;;;;;;;;;;;;14.57;65.70;99125.41;1054544;28;686;-64
2021/12/10 02:35:39;;;;;;;;;;;;;;;14.55;65.82;99114.00;1054452;28;747;-63
2021/12/10 02:36:30;;;;;;;;;;;;;;;14.55;65.62;99106.81;1052682;28;1826;-63
2021/12/10 02:37:20;;;;;;;;;;;;;;;14.55;65.76;99119.38;1049022;28;652;-63
2021/12/10 02:38:11;;;;;;;;;;;;;;;14.55;64.90;99108.66;1049162;28;700;-64
2021/12/10 02:39:01;;;;;;;;;;;;;;;14.55;65.05;99108.66;1049129;28;668;-63
2021/12/10 02:39:52;;;;;;;;;;;;;;;14.54;65.75;99101.63;1049196;28;975;-65
2021/12/10 02:40:42;;;;;;;;;;;;;;;14.55;64.99;99103.28;1048974;28;854;-65
2021/12/10 02:41:33;;;;;;;;;;;;;;;14.54;65.37;99091.72;1045918;28;626;-65
2021/12/10 02:42:23;;;;;;;;;;;;;;;14.56;65.04;99091.56;1045284;28;699;-65
2021/12/10 02:43:13;;;;;;;;;;;;;;;14.54;65.44;99097.09;1045002;28;677;-65
2021/12/10 02:44:04;;;;;;;;;;;;;;;14.54;65.67;99091.72;1045265;28;784;-65
2021/12/10 02:44:54;;;;;;;;;;;;;;;14.54;65.41;99090.88;1045098;28;727;-65
2021/12/10 02:45:45;;;;;;;;;;;;;;;14.53;64.72;99090.06;1045724;28;733;-64
2021/12/10 02:46:35;;;;;;;;;;;;;;;14.54;65.22;99088.22;1044734;28;1613;-64
2021/12/10 02:47:25;;;;;;;;;;;;;;;14.54;65.58;99085.53;1046293;28;649;-65
2021/12/10 02:48:16;;;;;;;;;;;;;;;14.53;65.61;99089.22;1050139;28;756;-64
2021/12/10 02:49:06;;;;;;;;;;;;;;;14.53;65.27;99084.69;1050523;28;717;-64
2021/12/10 02:49:57;;;;;;;;;;;;;;;14.52;65.21;99088.38;1050222;28;679;-65
2021/12/10 02:50:47;;;;;;;;;;;;;;;14.52;65.48;99074.97;1051309;28;1793;-65
2021/12/10 02:51:38;;;;;;;;;;;;;;;14.52;64.62;99071.44;1053933;28;703;-64
2021/12/10 02:52:28;;;;;;;;;;;;;;;14.52;64.65;99074.13;1053664;28;847;-65
2021/12/10 02:53:24;;;;;;;;;;;;;;;14.51;65.72;99075.97;1053986;28;645;-64
2021/12/10 02:54:20;;;;;;;;;;;;;;;14.50;64.86;99068.97;1050484;28;636;-64
2021/12/10 02:55:14;;;;;;;;;;;;;;;14.49;65.45;99067.28;1049544;28;633;-64
2021/12/10 02:56:05;;;;;;;;;;;;;;;14.50;64.77;99068.13;1050014;28;616;-65
2021/12/10 02:56:55;;;;;;;;;;;;;;;14.48;65.48;99057.56;1054513;28;723;-64
2021/12/10 02:57:45;;;;;;;;;;;;;;;14.49;64.83;99055.75;1053704;28;688;-64
2021/12/10 02:58:36;;;;;;;;;;;;;;;14.48;65.33;99060.25;1053705;28;1976;-64
2021/12/10 02:59:26;;;;;;;;;;;;;;;14.47;64.77;99063.94;1054422;28;683;-65
2021/12/10 03:00:17;;;;;;;;;;;;;;;14.47;65.56;99057.75;1054456;28;658;-64
2021/12/10 03:01:07;;;;;;;;;;;;;;;14.47;65.64;99057.75;1054305;28;628;-64
2021/12/10 03:01:59;;;;;;;;;;;;;;;14.47;65.24;99057.75;1053425;28;700;-64
2021/12/10 03:02:49;;;;;;;;;;;;;;;14.46;65.45;99056.06;1053123;28;719;-64
2021/12/10 03:03:40;;;;;;;;;;;;;;;14.45;65.16;99057.91;1054158;28;1971;-65
2021/12/10 03:04:32;;;;;;;;;;;;;;;14.45;65.35;99055.22;1049757;28;629;-65
2021/12/10 03:05:22;;;;;;;;;;;;;;;14.46;65.81;99056.06;1049862;28;695;-65
2021/12/10 03:06:13;;;;;;;;;;;;;;;14.46;65.59;99050.72;1054378;28;695;-64
2021/12/10 03:07:03;;;;;;;;;;;;;;;14.45;65.44;99057.91;1054204;28;1292;-65
2021/12/10 03:07:54;;;;;;;;;;;;;;;14.44;64.54;99052.72;1053295;28;633;-65
2021/12/10 03:08:44;;;;;;;;;;;;;;;14.44;65.41;99048.19;1054487;28;639;-65
2021/12/10 03:09:35;;;;;;;;;;;;;;;14.43;65.65;99043.00;1054308;28;691;-65
2021/12/10 03:10:25;;;;;;;;;;;;;;;14.44;65.35;99055.41;1054325;28;643;-64
2021/12/10 03:11:16;;;;;;;;;;;;;;;14.43;64.72;99043.00;1050723;28;734;-65
2021/12/10 03:12:06;;;;;;;;;;;;;;;14.42;64.82;99042.16;1045097;28;932;-65
2021/12/10 03:12:56;;;;;;;;;;;;;;;14.42;65.76;99046.69;1044550;28;614;-65
2021/12/10 03:13:47;;;;;;;;;;;;;;;14.41;64.84;99037.81;1048982;28;606;-65
2021/12/10 03:14:37;;;;;;;;;;;;;;;14.43;65.47;99034.97;1048370;28;635;-65
2021/12/10 03:15:28;;;;;;;;;;;;;;;14.43;64.54;99035.78;1048582;28;865;-64
2021/12/10 03:16:18;;;;;;;;;;;;;;;14.43;64.75;99040.31;1048332;28;681;-63
2021/12/10 03:17:09;;;;;;;;;;;;;;;14.41;64.57;99029.75;1048484;28;696;-63
2021/12/10 03:18:00;;;;;;;;;;;;;;;14.42;65.53;99034.13;1048167;28;632;-64
2021/12/10 03:18:51;;;;;;;;;;;;;;;14.42;64.94;99034.13;1045910;28;656;-64
2021/12/10 03:19:41;;;;;;;;;;;;;;;14.40;65.27;99027.22;1040894;28;755;-64
2021/12/10 03:20:32;;;;;;;;;;;;;;;14.41;65.25;99028.91;1043915;28;647;-64
2021/12/10 03:21:22;;;;;;;;;;;;;;;14.39;64.71;99022.84;1049097;28;610;-64
2021/12/10 03:22:12;;;;;;;;;;;;;;;14.40;65.01;99030.75;1048278;28;681;-64
2021/12/10 03:23:03;;;;;;;;;;;;;;;14.40;64.71;99025.41;1048880;28;1805;-64
2021/12/10 03:23:53;;;;;;;;;;;;;;;14.40;64.46;99025.41;1048871;28;1906;-64
2021/12/10 03:24:44;;;;;;;;;;;;;;;14.40;64.79;99024.53;1049121;28;649;-64
2021/12/10 03:25:34;;;;;;;;;;;;;;;14.40;64.85;99029.91;1049439;28;782;-64
2021/12/10 03:26:25;;;;;;;;;;;;;;;14.39;64.41;99020.19;1048941;28;784;-64
2021/12/10 03:27:15;;;;;;;;;;;;;;;14.38;64.68;99021.19;1049515;28;703;-63
2021/12/10 03:28:06;;;;;;;;;;;;;;;14.36;65.10;99009.78;1049698;28;744;-63
2021/12/10 03:28:56;;;;;;;;;;;;;;;14.36;65.31;99009.78;1049440;28;668;-63
2021/12/10 03:29:47;;;;;;;;;;;;;;;14.37;64.57;99016.81;1049532;28;829;-64
2021/12/10 03:30:37;;;;;;;;;;;;;;;14.37;65.43;99024.88;1049616;28;650;-63
2021/12/10 03:31:27;;;;;;;;;;;;;;;14.37;65.13;99014.16;1045587;28;652;-64
2021/12/10 03:32:18;;;;;;;;;;;;;;;14.37;64.56;99014.16;1041048;28;787;-64
2021/12/10 03:33:08;;;;;;;;;;;;;;;14.36;64.47;99002.59;1044259;28;689;-63
2021/12/10 03:33:59;;;;;;;;;;;;;;;14.34;65.03;99004.59;1044513;28;649;-64
2021/12/10 03:34:49;;;;;;;;;;;;;;;14.35;65.42;99005.44;1044352;28;647;-63
2021/12/10 03:35:41;;;;;;;;;;;;;;;14.34;64.42;98998.41;1048929;28;700;-63
2021/12/10 03:36:32;;;;;;;;;;;;;;;14.35;64.57;99002.75;1050123;28;714;-63
2021/12/10 03:37:22;;;;;;;;;;;;;;;14.35;65.22;98995.56;1050004;28;634;-63
2021/12/10 03:38:13;;;;;;;;;;;;;;;14.35;65.48;99006.28;1045547;28;772;-61
2021/12/10 03:39:03;;;;;;;;;;;;;;;14.35;65.14;98994.72;1045505;28;615;-61
2021/12/10 03:39:54;;;;;;;;;;;;;;;14.34;65.20;98998.41;1050021;28;944;-61
2021/12/10 03:40:44;;;;;;;;;;;;;;;14.33;65.27;98994.06;1049381;28;668;-62
2021/12/10 03:41:34;;;;;;;;;;;;;;;14.33;64.91;98994.88;1049950;28;688;-62
2021/12/10 03:42:25;;;;;;;;;;;;;;;14.33;65.01;98996.75;1049959;28;764;-62
2021/12/10 03:43:15;;;;;;;;;;;;;;;14.32;65.03;98992.41;1049955;28;640;-63
2021/12/10 03:44:06;;;;;;;;;;;;;;;14.30;64.56;98991.72;1050025;28;775;-62
2021/12/10 03:44:56;;;;;;;;;;;;;;;14.32;64.61;98984.38;1045494;28;704;-62
2021/12/10 03:45:46;;;;;;;;;;;;;;;14.31;64.47;98982.69;1045569;28;732;-64
2021/12/10 03:46:37;;;;;;;;;;;;;;;14.31;64.86;98985.38;1049763;28;826;-64
2021/12/10 03:47:27;;;;;;;;;;;;;;;14.30;65.12;98979.19;1049882;28;641;-64
2021/12/10 03:48:18;;;;;;;;;;;;;;;14.31;64.95;98980.00;1049997;28;679;-64
2021/12/10 03:49:08;;;;;;;;;;;;;;;14.31;64.82;98983.53;1049963;28;1641;-65
2021/12/10 03:49:59;;;;;;;;;;;;;;;14.31;64.81;98977.34;1053335;28;772;-65
2021/12/10 03:50:49;;;;;;;;;;;;;;;14.31;64.92;98977.34;1053370;28;748;-65
2021/12/10 03:51:39;;;;;;;;;;;;;;;14.31;64.64;98969.28;1053573;28;637;-64
2021/12/10 03:52:30;;;;;;;;;;;;;;;14.31;64.92;98971.97;1053792;28;778;-64
2021/12/10 03:53:20;;;;;;;;;;;;;;;14.30;65.45;98970.28;1049020;28;902;-64
2021/12/10 03:54:11;;;;;;;;;;;;;;;14.30;65.19;98972.97;1047992;28;682;-64
2021/12/10 03:55:01;;;;;;;;;;;;;;;14.29;64.47;98968.63;1052278;28;862;-64
2021/12/10 03:55:52;;;;;;;;;;;;;;;14.30;64.82;98973.81;1052623;28;691;-64
2021/12/10 03:56:42;;;;;;;;;;;;;;;14.29;64.86;98965.94;1053473;28;636;-64
2021/12/10 03:57:32;;;;;;;;;;;;;;;14.29;64.79;98960.59;1053521;28;621;-64
2021/12/10 03:58:23;;;;;;;;;;;;;;;14.28;64.79;98962.44;1053603;28;712;-64
2021/12/10 03:59:13;;;;;;;;;;;;;;;14.28;64.69;98956.22;1050536;28;754;-64
2021/12/10 04:00:04;;;;;;;;;;;;;;;14.27;65.02;98962.59;1048498;28;712;-64
2021/12/10 04:00:54;;;;;;;;;;;;;;;14.25;65.42;98958.25;1051771;28;1940;-64
2021/12/10 04:01:44;;;;;;;;;;;;;;;14.27;65.03;98954.56;1048985;28;1308;-64
2021/12/10 04:02:35;;;;;;;;;;;;;;;14.26;65.32;98959.06;1049703;28;693;-64
2021/12/10 04:03:25;;;;;;;;;;;;;;;14.25;64.38;98950.19;1053851;28;764;-64
2021/12/10 04:04:16;;;;;;;;;;;;;;;14.25;64.57;98950.19;1052507;28;716;-64
2021/12/10 04:05:06;;;;;;;;;;;;;;;14.25;64.83;98958.25;1048938;28;642;-64
2021/12/10 04:05:57;;;;;;;;;;;;;;;14.25;64.95;98947.53;1049004;28;683;-64
2021/12/10 04:06:47;;;;;;;;;;;;;;;14.24;64.53;98950.38;1053651;28;696;-64
2021/12/10 04:07:37;;;;;;;;;;;;;;;14.24;65.04;98956.56;1048941;28;763;-64
2021/12/10 04:08:28;;;;;;;;;;;;;;;14.22;64.46;98947.84;1049133;28;636;-64
2021/12/10 04:09:18;;;;;;;;;;;;;;;14.23;64.75;98938.81;1053323;28;589;-64
2021/12/10 04:10:09;;;;;;;;;;;;;;;14.23;64.30;98940.66;1052600;28;645;-64
2021/12/10 04:10:59;;;;;;;;;;;;;;;14.22;64.49;98933.63;1048631;28;719;-64
2021/12/10 04:11:51;;;;;;;;;;;;;;;14.22;64.54;98937.13;1049221;28;1172;-64
2021/12/10 04:12:41;;;;;;;;;;;;;;;14.23;64.41;98938.81;1049250;28;1220;-64
2021/12/10 04:13:31;;;;;;;;;;;;;;;14.21;65.08;98924.75;1049369;28;671;-64
2021/12/10 04:14:22;;;;;;;;;;;;;;;14.23;65.03;98936.13;1049410;28;656;-64
2021/12/10 04:15:12;;;;;;;;;;;;;;;14.22;65.05;98936.31;1045400;28;637;-64
2021/12/10 04:16:03;;;;;;;;;;;;;;;14.21;65.09;98924.75;1044274;28;842;-64
2021/12/10 04:16:56;;;;;;;;;;;;;;;14.21;64.33;98930.09;1049116;28;1027;-63
2021/12/10 04:17:48;;;;;;;;;;;;;;;14.20;64.52;98933.78;1045455;28;819;-64
2021/12/10 04:18:39;;;;;;;;;;;;;;;14.20;64.72;98936.47;1040972;28;704;-64
2021/12/10 04:19:29;;;;;;;;;;;;;;;14.20;65.26;98928.44;1044787;28;696;-64
2021/12/10 04:20:20;;;;;;;;;;;;;;;14.20;64.78;98928.44;1045515;28;889;-64
2021/12/10 04:21:12;;;;;;;;;;;;;;;14.20;64.37;98932.94;1048456;28;676;-63
2021/12/10 04:22:02;;;;;;;;;;;;;;;14.21;64.28;98932.78;1049246;28;719;-64
2021/12/10 04:22:53;;;;;;;;;;;;;;;14.20;64.78;98928.44;1049629;28;1901;-61
2021/12/10 04:23:43;;;;;;;;;;;;;;;14.20;64.74;98928.44;1048808;28;1971;-61
2021/12/10 04:24:33;;;;;;;;;;;;;;;14.18;65.01;98925.06;1045442;28;683;-61
2021/12/10 04:25:24;;;;;;;;;;;;;;;14.18;63.89;98930.44;1044869;28;688;-61
2021/12/10 04:26:15;;;;;;;;;;;;;;;14.17;64.08;98915.38;1048746;28;865;-61
2021/12/10 04:27:05;;;;;;;;;;;;;;;14.15;64.49;98922.72;1048563;28;691;-61
2021/12/10 04:27:56;;;;;;;;;;;;;;;14.17;64.25;98917.22;1048640;28;708;-61
2021/12/10 04:28:46;;;;;;;;;;;;;;;14.16;64.60;98921.72;1048879;28;662;-61
2021/12/10 04:29:37;;;;;;;;;;;;;;;14.15;64.56;98917.38;1048751;28;673;-61
2021/12/10 04:30:27;;;;;;;;;;;;;;;14.15;64.62;98919.25;1048746;28;795;-61
2021/12/10 04:31:17;;;;;;;;;;;;;;;14.15;64.38;98920.06;1048634;28;672;-61
2021/12/10 04:32:08;;;;;;;;;;;;;;;14.16;64.40;98915.53;1048641;28;1134;-61
2021/12/10 04:32:58;;;;;;;;;;;;;;;14.16;64.38;98912.84;1048561;28;806;-61
2021/12/10 04:33:49;;;;;;;;;;;;;;;14.16;64.84;98918.22;1048944;28;728;-60
2021/12/10 04:34:39;;;;;;;;;;;;;;;14.15;64.59;98914.69;1048495;28;843;-60
2021/12/10 04:35:30;;;;;;;;;;;;;;;14.15;64.39;98905.84;1049218;28;621;-60
2021/12/10 04:36:20;;;;;;;;;;;;;;;14.14;64.64;98910.38;1048917;28;629;-61
2021/12/10 04:37:10;;;;;;;;;;;;;;;14.14;64.35;98902.34;1048505;28;1956;-60
2021/12/10 04:38:01;;;;;;;;;;;;;;;14.15;65.15;98908.53;1048679;28;672;-60
2021/12/10 04:38:51;;;;;;;;;;;;;;;14.14;64.13;98902.34;1048611;28;827;-61
2021/12/10 04:39:46;;;;;;;;;;;;;;;14.13;64.45;98903.34;1048750;28;656;-61
2021/12/10 04:40:36;;;;;;;;;;;;;;;14.12;64.66;98901.66;1048300;28;684;-60
2021/12/10 04:41:27;;;;;;;;;;;;;;;14.12;64.33;98899.00;1048631;28;669;-60
2021/12/10 04:42:17;;;;;;;;;;;;;;;14.12;65.13;98899.00;1048715;28;641;-61
2021/12/10 04:43:07;;;;;;;;;;;;;;;14.12;64.39;98896.31;1048518;28;824;-63
2021/12/10 04:43:58;;;;;;;;;;;;;;;14.12;64.46;98896.31;1048638;28;1889;-63